createdAt,value
2023-03-07T00:02:04.630Z,17.90
2023-03-07T00:04:31.858Z,17.45
2023-03-07T00:06:59.215Z,18.30
2023-03-07T00:09:26.533Z,17.90
2023-03-07T00:11:53.798Z,17.15
2023-03-07T00:14:21.139Z,17.13
2023-03-07T00:16:51.711Z,18.08
2023-03-07T00:19:19.409Z,18.27
2023-03-07T00:21:46.948Z,17.83
2023-03-07T00:24:14.221Z,16.90
2023-03-07T00:26:41.595Z,16.70
2023-03-07T00:29:10.226Z,16.25
2023-03-07T00:31:38.204Z,15.95
2023-03-07T00:34:05.907Z,17.23
2023-03-07T00:36:33.382Z,17.15
2023-03-07T00:39:00.757Z,16.20
2023-03-07T00:41:29.377Z,16.13
2023-03-07T00:43:57.007Z,16.38
2023-03-07T00:46:25.553Z,14.55
2023-03-07T00:48:53.456Z,15.07
2023-03-07T00:51:23.642Z,15.68
2023-03-07T00:53:51.874Z,16.42
2023-03-07T00:56:25.846Z,14.38
2023-03-07T00:58:53.645Z,16.40
2023-03-07T01:01:24.596Z,16.15
2023-03-07T01:03:56.358Z,16.67
2023-03-07T01:06:26.547Z,16.67
2023-03-07T01:08:57.406Z,14.85
2023-03-07T01:11:25.201Z,16.77
2023-03-07T01:13:55.828Z,14.85
2023-03-07T01:16:27.970Z,15.93
2023-03-07T01:18:57.693Z,15.47
2023-03-07T01:21:31.343Z,14.32
2023-03-07T01:24:02.090Z,14.60
2023-03-07T01:26:32.177Z,14.80
2023-03-07T01:29:02.173Z,15.80
2023-03-07T01:31:33.086Z,16.50
2023-03-07T01:34:02.571Z,15.38
2023-03-07T01:36:34.684Z,15.68
2023-03-07T01:39:14.673Z,15.02
2023-03-07T01:42:00.410Z,15.63
2023-03-07T01:44:30.180Z,14.65
2023-03-07T01:47:01.002Z,14.70
2023-03-07T01:49:49.013Z,15.90
2023-03-07T01:52:31.686Z,15.13
2023-03-07T01:55:06.495Z,17.33
2023-03-07T01:57:38.583Z,16.65
2023-03-07T02:00:10.253Z,16.67
2023-03-07T02:02:46.008Z,16.98
2023-03-07T02:05:27.351Z,15.90
2023-03-07T02:07:57.327Z,15.93
2023-03-07T02:10:28.836Z,15.48
2023-03-07T02:12:56.184Z,16.30
2023-03-07T02:15:23.983Z,17.25
2023-03-07T02:17:53.534Z,14.90
2023-03-07T02:20:21.275Z,14.82
2023-03-07T02:22:52.081Z,16.15
2023-03-07T02:25:27.649Z,15.88
2023-03-07T02:27:57.446Z,15.50
2023-03-07T02:30:26.798Z,15.55
2023-03-07T02:32:55.084Z,15.98
2023-03-07T02:35:24.725Z,15.13
2023-03-07T02:38:03.104Z,14.70
2023-03-07T02:40:32.657Z,15.77
2023-03-07T02:43:09.752Z,16.02
2023-03-07T02:45:40.188Z,17.17
2023-03-07T02:48:07.747Z,15.15
2023-03-07T02:50:35.921Z,15.05
2023-03-07T02:53:03.446Z,14.57
2023-03-07T02:55:30.812Z,15.80
2023-03-07T02:58:02.420Z,15.80
2023-03-07T03:00:29.993Z,15.70
2023-03-07T03:02:57.368Z,16.05
2023-03-07T03:05:24.735Z,17.98
2023-03-07T03:07:53.335Z,14.90
2023-03-07T03:10:21.090Z,16.02
2023-03-07T03:12:48.420Z,14.32
2023-03-07T03:15:16.926Z,16.65
2023-03-07T03:17:46.728Z,17.30
2023-03-07T03:20:14.267Z,16.20
2023-03-07T03:22:41.844Z,17.02
2023-03-07T03:25:12.625Z,16.67
2023-03-07T03:27:42.060Z,15.63
2023-03-07T03:30:12.842Z,17.00
2023-03-07T03:32:41.154Z,16.20
2023-03-07T03:35:11.102Z,17.23
2023-03-07T03:37:39.329Z,15.82
2023-03-07T03:40:14.556Z,18.17
2023-03-07T03:42:44.480Z,17.35
2023-03-07T03:45:15.096Z,17.52
2023-03-07T03:47:42.472Z,17.35
2023-03-07T03:50:11.104Z,17.95
2023-03-07T03:52:38.704Z,18.33
2023-03-07T03:55:06.436Z,18.45
2023-03-07T03:57:33.899Z,17.10
2023-03-07T04:00:01.164Z,20.15
2023-03-07T04:02:30.951Z,20.98
2023-03-07T04:04:59.329Z,18.77
2023-03-07T04:07:29.294Z,18.15
2023-03-07T04:09:57.025Z,19.63
2023-03-07T04:12:25.218Z,19.83
2023-03-07T04:14:52.513Z,18.55
2023-03-07T04:17:19.778Z,17.15
2023-03-07T04:19:47.165Z,15.88
2023-03-07T04:22:14.502Z,16.73
2023-03-07T04:24:41.883Z,16.60
2023-03-07T04:27:09.463Z,16.92
2023-03-07T04:29:38.251Z,18.13
2023-03-07T04:32:16.270Z,17.52
2023-03-07T04:34:43.659Z,19.23
2023-03-07T04:37:11.187Z,18.50
2023-03-07T04:39:38.789Z,16.98
2023-03-07T04:42:08.582Z,16.20
2023-03-07T04:44:37.084Z,17.70
2023-03-07T04:47:04.532Z,18.27
2023-03-07T04:49:34.757Z,17.35
2023-03-07T04:52:03.990Z,18.35
2023-03-07T04:54:31.503Z,18.23
2023-03-07T04:56:59.462Z,18.27
2023-03-07T04:59:26.899Z,19.38
2023-03-07T05:01:54.501Z,16.95
2023-03-07T05:04:21.960Z,17.90
2023-03-07T05:06:49.271Z,18.98
2023-03-07T05:09:16.874Z,18.15
2023-03-07T05:11:45.053Z,17.55
2023-03-07T05:14:13.081Z,18.30
2023-03-07T05:16:40.472Z,17.73
2023-03-07T05:19:08.683Z,19.50
2023-03-07T05:21:40.056Z,18.13
2023-03-07T05:24:08.541Z,18.77
2023-03-07T05:26:36.828Z,19.58
2023-03-07T05:29:04.404Z,19.88
2023-03-07T05:31:31.825Z,18.33
2023-03-07T05:33:59.577Z,18.23
2023-03-07T05:36:27.393Z,17.45
2023-03-07T05:38:56.560Z,18.23
2023-03-07T05:41:24.881Z,19.88
2023-03-07T05:43:52.214Z,18.25
2023-03-07T05:46:20.850Z,20.13
2023-03-07T05:48:48.230Z,19.35
2023-03-07T05:51:15.650Z,19.45
2023-03-07T05:53:43.647Z,20.95
2023-03-07T05:56:10.956Z,17.90
2023-03-07T05:58:38.733Z,22.45
2023-03-07T06:01:06.758Z,21.55
2023-03-07T06:03:34.354Z,20.58
2023-03-07T06:06:01.795Z,22.13
2023-03-07T06:08:29.366Z,19.38
2023-03-07T06:10:56.986Z,19.02
2023-03-07T06:13:25.946Z,21.48
2023-03-07T06:15:54.917Z,22.02
2023-03-07T06:18:24.706Z,19.13
2023-03-07T06:21:00.503Z,20.55
2023-03-07T06:23:33.376Z,20.83
2023-03-07T06:26:01.396Z,20.50
2023-03-07T06:28:32.808Z,19.35
2023-03-07T06:31:01.591Z,22.30
2023-03-07T06:33:29.493Z,21.23
2023-03-07T06:35:57.071Z,21.42
2023-03-07T06:38:24.466Z,20.52
2023-03-07T06:40:56.693Z,22.02
2023-03-07T06:43:24.249Z,22.90
2023-03-07T06:45:52.139Z,20.67
2023-03-07T06:48:19.870Z,20.88
2023-03-07T06:50:47.576Z,22.63
2023-03-07T06:53:15.202Z,21.80
2023-03-07T06:55:42.712Z,22.63
2023-03-07T06:58:12.320Z,23.05
2023-03-07T07:00:39.901Z,21.15
2023-03-07T07:03:07.539Z,22.92
2023-03-07T07:05:34.921Z,22.33
2023-03-07T07:08:02.412Z,23.15
2023-03-07T07:10:29.832Z,24.90
2023-03-07T07:12:58.189Z,22.70
2023-03-07T07:15:27.321Z,20.60
2023-03-07T07:17:54.717Z,21.15
2023-03-07T07:20:24.237Z,22.60
2023-03-07T07:22:51.607Z,23.80
2023-03-07T07:25:20.113Z,20.88
2023-03-07T07:27:48.057Z,22.17
2023-03-07T07:30:15.731Z,22.88
2023-03-07T07:32:45.103Z,21.80
2023-03-07T07:35:13.002Z,23.70
2023-03-07T07:37:40.549Z,20.83
2023-03-07T07:40:11.978Z,23.35
2023-03-07T07:42:39.523Z,22.30
2023-03-07T07:45:24.591Z,23.58
2023-03-07T07:50:23.098Z,23.77
2023-03-07T07:52:52.672Z,20.42
2023-03-07T07:55:19.995Z,25.42
2023-03-07T07:57:47.486Z,23.98
2023-03-07T08:00:19.594Z,23.40
2023-03-07T08:02:50.728Z,23.45
2023-03-07T08:05:21.941Z,23.15
2023-03-07T08:07:50.536Z,23.75
2023-03-07T08:10:18.632Z,25.92
2023-03-07T08:12:51.517Z,22.67
2023-03-07T08:15:22.111Z,28.48
2023-03-07T08:17:51.526Z,27.27
2023-03-07T08:20:22.480Z,27.33
2023-03-07T08:22:50.855Z,27.10
2023-03-07T08:25:23.954Z,30.35
2023-03-07T08:27:55.840Z,28.27
2023-03-07T08:30:25.132Z,25.95
2023-03-07T08:32:54.079Z,27.65
2023-03-07T08:35:22.193Z,27.45
2023-03-07T08:37:53.926Z,25.88
2023-03-07T08:40:22.225Z,26.20
2023-03-07T08:42:49.673Z,25.48
2023-03-07T08:45:17.456Z,25.58
2023-03-07T08:47:44.790Z,24.92
2023-03-07T08:50:12.869Z,24.80
2023-03-07T08:52:40.081Z,22.52
2023-03-07T08:55:07.835Z,25.55
2023-03-07T08:57:35.126Z,24.83
2023-03-07T09:00:02.535Z,24.38
2023-03-07T09:02:29.861Z,24.30
2023-03-07T09:04:57.195Z,25.52
2023-03-07T09:07:24.649Z,24.52
2023-03-07T09:09:51.908Z,24.98
2023-03-07T09:12:19.243Z,23.75
2023-03-07T09:14:46.628Z,23.77
2023-03-07T09:17:14.492Z,24.48
2023-03-07T09:19:43.351Z,23.05
2023-03-07T09:22:10.748Z,24.80
2023-03-07T09:24:38.213Z,24.60
2023-03-07T09:27:05.554Z,21.48
2023-03-07T09:29:32.845Z,23.25
2023-03-07T09:32:03.772Z,22.50
2023-03-07T09:34:32.063Z,23.17
2023-03-07T09:36:59.560Z,23.48
2023-03-07T09:39:26.786Z,25.13
2023-03-07T09:41:54.201Z,24.20
2023-03-07T09:44:30.236Z,24.60
2023-03-07T09:48:03.867Z,22.95
2023-03-07T09:50:59.362Z,23.88
2023-03-07T09:53:31.865Z,23.65
2023-03-07T09:56:01.650Z,25.52
2023-03-07T09:58:29.498Z,28.75
2023-03-07T10:01:01.664Z,26.52
2023-03-07T10:03:46.742Z,27.35
2023-03-07T10:06:41.795Z,27.17
2023-03-07T10:09:18.543Z,28.75
2023-03-07T10:12:13.804Z,28.15
2023-03-07T10:14:50.285Z,31.55
2023-03-07T10:17:26.045Z,28.35
2023-03-07T10:19:57.595Z,28.45
2023-03-07T10:25:26.030Z,26.92
2023-03-07T10:28:25.226Z,25.65
2023-03-07T10:30:58.579Z,27.88
2023-03-07T10:33:28.375Z,26.17
2023-03-07T10:36:06.354Z,24.30
2023-03-07T10:38:52.495Z,23.83
2023-03-07T10:41:21.666Z,22.85
2023-03-07T10:43:51.004Z,23.90
2023-03-07T10:46:26.835Z,22.17
2023-03-07T10:49:10.804Z,21.90
2023-03-07T10:52:02.012Z,22.67
2023-03-07T10:54:32.659Z,24.00
2023-03-07T10:57:05.788Z,24.33
2023-03-07T10:59:33.354Z,23.10
2023-03-07T11:02:03.115Z,22.88
2023-03-07T11:04:44.767Z,23.83
2023-03-07T11:09:57.775Z,22.90
2023-03-07T11:12:27.223Z,23.55
2023-03-07T11:15:16.397Z,23.25
2023-03-07T11:17:46.266Z,24.20
2023-03-07T11:20:23.456Z,26.05
2023-03-07T11:23:11.546Z,26.15
2023-03-07T11:25:38.826Z,22.98
2023-03-07T11:28:28.771Z,22.38
2023-03-07T11:31:11.576Z,21.13
2023-03-07T11:34:11.183Z,20.85
2023-03-07T11:36:41.324Z,20.85
2023-03-07T11:39:34.518Z,20.67
2023-03-07T11:42:09.816Z,20.52
2023-03-07T11:44:53.167Z,22.67
2023-03-07T11:47:35.770Z,22.63
2023-03-07T11:50:13.044Z,21.27
2023-03-07T11:52:58.947Z,22.02
2023-03-07T11:55:44.656Z,19.95
2023-03-07T11:58:45.218Z,22.08
2023-03-07T12:01:34.842Z,23.58
2023-03-07T12:04:29.791Z,20.73
2023-03-07T12:07:17.645Z,20.60
2023-03-07T12:10:01.771Z,20.55
2023-03-07T12:12:53.058Z,20.90
2023-03-07T12:15:56.480Z,22.50
2023-03-07T12:18:36.068Z,20.95
2023-03-07T12:21:15.502Z,21.33
2023-03-07T12:23:50.243Z,24.05
2023-03-07T12:26:53.051Z,20.67
2023-03-07T12:29:42.275Z,20.40
2023-03-07T12:32:14.566Z,20.92
2023-03-07T12:34:53.849Z,20.15
2023-03-07T12:37:27.117Z,22.08
2023-03-07T12:40:00.162Z,21.77
2023-03-07T12:42:33.231Z,22.33
2023-03-07T12:45:20.722Z,21.42
2023-03-07T12:47:53.976Z,19.75
2023-03-07T12:50:51.154Z,20.27
2023-03-07T12:53:24.508Z,20.00
2023-03-07T12:55:57.216Z,20.83
2023-03-07T12:58:47.049Z,20.23
2023-03-07T13:01:18.576Z,21.83
2023-03-07T13:06:33.482Z,20.85
2023-03-07T13:09:04.235Z,19.98
2023-03-07T13:11:34.392Z,19.38
2023-03-07T13:14:03.684Z,19.60
2023-03-07T13:16:40.064Z,22.58
2023-03-07T13:19:35.644Z,22.60
2023-03-07T13:22:23.236Z,19.92
2023-03-07T13:25:19.498Z,19.42
2023-03-07T13:28:00.668Z,20.48
2023-03-07T13:30:30.212Z,20.90
2023-03-07T13:32:57.558Z,20.35
2023-03-07T13:35:28.422Z,21.08
2023-03-07T13:37:59.942Z,20.25
2023-03-07T13:42:57.645Z,18.90
2023-03-07T13:45:40.565Z,19.80
2023-03-07T13:48:10.955Z,18.80
2023-03-07T13:50:59.547Z,18.38
2023-03-07T13:53:46.395Z,17.48
2023-03-07T13:56:27.473Z,18.98
2023-03-07T13:59:20.793Z,18.13
2023-03-07T14:02:04.691Z,17.20
2023-03-07T14:04:45.173Z,17.60
2023-03-07T14:07:22.682Z,17.60
2023-03-07T14:09:57.291Z,16.50
2023-03-07T14:12:52.961Z,17.17
2023-03-07T14:15:36.813Z,17.98
2023-03-07T14:18:27.106Z,19.40
2023-03-07T14:20:57.453Z,19.83
2023-03-07T14:23:28.039Z,18.58
2023-03-07T14:26:22.472Z,18.63
2023-03-07T14:29:12.808Z,19.83
2023-03-07T14:31:42.776Z,19.83
2023-03-07T14:34:36.777Z,20.38
2023-03-07T14:37:17.229Z,19.17
2023-03-07T14:40:04.404Z,19.30
2023-03-07T14:42:45.433Z,20.13
2023-03-07T14:45:28.508Z,20.10
2023-03-07T14:47:56.148Z,21.25
2023-03-07T14:50:26.833Z,22.42
2023-03-07T14:53:29.749Z,20.08
2023-03-07T14:55:59.574Z,20.75
2023-03-07T14:58:34.307Z,18.85
2023-03-07T15:01:04.943Z,20.60
2023-03-07T15:03:33.063Z,19.85
2023-03-07T15:06:02.940Z,23.48
2023-03-07T15:08:38.397Z,25.67
2023-03-07T15:11:28.960Z,19.08
2023-03-07T15:14:12.744Z,20.55
2023-03-07T15:16:53.982Z,18.48
2023-03-07T15:19:37.185Z,18.70
2023-03-07T15:22:08.418Z,18.20
2023-03-07T15:24:43.286Z,16.55
2023-03-07T15:27:15.294Z,16.80
2023-03-07T15:29:47.676Z,17.00
2023-03-07T15:32:36.554Z,17.80
2023-03-07T15:35:11.038Z,17.83
2023-03-07T15:37:57.299Z,17.05
2023-03-07T15:40:36.116Z,16.95
2023-03-07T15:43:04.526Z,17.38
2023-03-07T15:45:40.780Z,16.85
2023-03-07T15:48:36.053Z,17.95
2023-03-07T15:51:14.175Z,17.33
2023-03-07T15:53:42.830Z,21.33
2023-03-07T15:56:33.799Z,21.70
2023-03-07T15:59:26.247Z,21.60
2023-03-07T16:01:54.079Z,21.75
2023-03-07T16:04:37.259Z,21.92
2023-03-07T16:07:08.172Z,22.45
2023-03-07T16:10:26.871Z,22.38
2023-03-07T16:12:54.498Z,21.08
2023-03-07T16:15:24.006Z,21.65
2023-03-07T16:17:56.759Z,20.67
2023-03-07T16:20:27.227Z,22.08
2023-03-07T16:22:55.862Z,21.40
2023-03-07T16:25:27.191Z,19.48
2023-03-07T16:30:28.792Z,22.45
2023-03-07T16:32:56.824Z,20.65
2023-03-07T16:35:27.635Z,23.23
2023-03-07T16:37:56.801Z,22.95
2023-03-07T16:40:26.315Z,23.05
2023-03-07T16:42:54.168Z,22.95
2023-03-07T16:45:31.802Z,24.85
2023-03-07T16:48:02.605Z,23.83
2023-03-07T16:50:33.629Z,23.67
2023-03-07T16:53:00.998Z,24.92
2023-03-07T16:55:32.036Z,24.33
2023-03-07T16:58:02.614Z,23.13
2023-03-07T17:00:30.456Z,24.43
2023-03-07T17:03:00.974Z,22.38
2023-03-07T17:05:30.662Z,23.90
2023-03-07T17:08:00.961Z,24.48
2023-03-07T17:10:29.649Z,23.77
2023-03-07T17:12:59.524Z,22.85
2023-03-07T17:15:31.351Z,24.92
2023-03-07T17:18:00.143Z,25.85
2023-03-07T17:20:28.833Z,26.20
2023-03-07T17:22:56.799Z,25.05
2023-03-07T17:25:25.232Z,26.38
2023-03-07T17:28:05.044Z,26.52
2023-03-07T17:30:33.497Z,25.10
2023-03-07T17:33:10.064Z,24.80
2023-03-07T17:35:38.289Z,24.67
2023-03-07T17:38:08.571Z,22.27
2023-03-07T17:40:42.102Z,21.17
2023-03-07T17:43:10.006Z,26.27
2023-03-07T17:45:40.677Z,25.15
2023-03-07T17:48:09.023Z,26.27
2023-03-07T17:50:41.412Z,25.15
2023-03-07T17:53:10.965Z,25.95
2023-03-07T17:56:12.317Z,26.02
2023-03-07T17:58:40.801Z,27.55
2023-03-07T18:01:11.782Z,27.35
2023-03-07T18:03:41.761Z,29.75
2023-03-07T18:06:13.943Z,27.42
2023-03-07T18:08:44.889Z,29.17
2023-03-07T18:11:14.898Z,27.35
2023-03-07T18:13:43.415Z,26.55
2023-03-07T18:16:20.173Z,24.73
2023-03-07T18:18:58.901Z,25.08
2023-03-07T18:21:30.198Z,27.88
2023-03-07T18:23:59.069Z,27.35
2023-03-07T18:26:27.787Z,29.08
2023-03-07T18:28:57.147Z,28.48
2023-03-07T18:31:30.897Z,27.83
2023-03-07T18:33:59.361Z,29.55
2023-03-07T18:36:28.277Z,29.83
2023-03-07T18:38:56.187Z,28.40
2023-03-07T18:41:27.747Z,29.08
2023-03-07T18:43:57.960Z,29.75
2023-03-07T18:46:33.541Z,29.25
2023-03-07T18:49:02.323Z,29.77
2023-03-07T18:51:31.021Z,29.90
2023-03-07T18:54:01.463Z,29.20
2023-03-07T18:56:31.161Z,28.77
2023-03-07T18:59:00.472Z,25.13
2023-03-07T19:01:34.017Z,28.52
2023-03-07T19:04:03.819Z,26.25
2023-03-07T19:06:45.316Z,27.83
2023-03-07T19:09:17.166Z,25.42
2023-03-07T19:11:45.566Z,25.02
2023-03-07T19:14:15.498Z,27.15
2023-03-07T19:16:43.999Z,26.02
2023-03-07T19:19:12.201Z,27.92
2023-03-07T19:21:41.803Z,30.38
2023-03-07T19:24:12.821Z,29.48
2023-03-07T19:26:44.643Z,29.38
2023-03-07T19:29:13.750Z,26.20
2023-03-07T19:31:44.916Z,25.30
2023-03-07T19:34:13.510Z,27.60
2023-03-07T19:36:42.354Z,27.45
2023-03-07T19:39:20.265Z,29.75
2023-03-07T19:41:49.107Z,28.67
2023-03-07T19:44:18.926Z,25.83
2023-03-07T19:46:47.059Z,25.88
2023-03-07T19:49:16.525Z,23.10
2023-03-07T19:51:45.346Z,21.48
2023-03-07T19:54:15.201Z,23.30
2023-03-07T19:56:45.303Z,23.35
2023-03-07T19:59:14.617Z,23.58
2023-03-07T20:01:44.160Z,20.55
2023-03-07T20:04:15.060Z,20.85
2023-03-07T20:06:46.692Z,22.27
2023-03-07T20:09:15.245Z,21.02
2023-03-07T20:11:44.042Z,19.48
2023-03-07T20:14:13.186Z,20.70
2023-03-07T20:16:42.570Z,21.42
2023-03-07T20:19:11.520Z,22.75
2023-03-07T20:21:41.463Z,22.25
2023-03-07T20:24:10.227Z,20.65
2023-03-07T20:26:40.160Z,20.65
2023-03-07T20:29:10.120Z,20.42
2023-03-07T20:31:40.960Z,19.08
2023-03-07T20:34:09.792Z,20.65
2023-03-07T20:36:39.695Z,19.20
2023-03-07T20:39:15.213Z,20.45
2023-03-07T20:41:44.798Z,19.65
2023-03-07T20:44:15.163Z,20.67
2023-03-07T20:46:44.674Z,20.27
2023-03-07T20:49:16.546Z,19.90
2023-03-07T20:51:45.254Z,20.05
2023-03-07T20:54:17.800Z,19.58
2023-03-07T20:56:49.059Z,21.05
2023-03-07T20:59:19.795Z,21.65
2023-03-07T21:01:49.522Z,20.60
2023-03-07T21:04:23.660Z,19.23
2023-03-07T21:06:52.473Z,18.88
2023-03-07T21:09:21.303Z,19.10
2023-03-07T21:11:50.397Z,19.58
2023-03-07T21:14:21.353Z,19.52
2023-03-07T21:16:50.054Z,20.17
2023-03-07T21:19:18.061Z,21.75
2023-03-07T21:21:46.916Z,19.38
2023-03-07T21:24:16.273Z,21.23
2023-03-07T21:26:45.165Z,20.40
2023-03-07T21:29:14.620Z,21.30
2023-03-07T21:31:42.785Z,20.02
2023-03-07T21:34:15.036Z,20.35
2023-03-07T21:36:43.318Z,20.00
2023-03-07T21:39:12.100Z,21.42
2023-03-07T21:41:40.833Z,20.85
2023-03-07T21:44:09.941Z,19.30
2023-03-07T21:46:38.164Z,18.55
2023-03-07T21:49:05.828Z,21.65
2023-03-07T21:51:34.527Z,20.65
2023-03-07T21:54:02.063Z,20.23
2023-03-07T21:56:29.903Z,19.23
2023-03-07T21:58:57.665Z,19.67
2023-03-07T22:01:29.058Z,20.77
2023-03-07T22:06:26.391Z,17.92
2023-03-07T22:08:54.236Z,18.95
2023-03-07T22:11:22.074Z,20.27
2023-03-07T22:13:49.581Z,19.33
2023-03-07T22:16:20.708Z,19.20
2023-03-07T22:18:57.721Z,21.38
2023-03-07T22:21:26.852Z,18.88
2023-03-07T22:24:01.049Z,20.10
2023-03-07T22:26:29.782Z,20.30
2023-03-07T22:28:58.131Z,21.77
2023-03-07T22:31:25.913Z,22.77
2023-03-07T22:33:53.403Z,20.70
2023-03-07T22:36:21.049Z,22.33
2023-03-07T22:38:52.913Z,22.17
2023-03-07T22:41:20.436Z,21.27
2023-03-07T22:43:47.724Z,21.15
2023-03-07T22:46:15.150Z,21.30
2023-03-07T22:48:42.503Z,24.35
2023-03-07T22:51:15.204Z,22.10
2023-03-07T22:53:42.919Z,20.08
2023-03-07T22:56:19.476Z,21.60
2023-03-07T22:58:47.112Z,20.98
2023-03-07T23:01:16.982Z,20.13
2023-03-07T23:03:44.324Z,19.85
2023-03-07T23:06:12.786Z,24.83
2023-03-07T23:08:40.168Z,20.08
2023-03-07T23:11:09.158Z,17.55
2023-03-07T23:13:36.623Z,20.17
2023-03-07T23:16:14.379Z,21.02
2023-03-07T23:18:42.482Z,21.88
2023-03-07T23:21:12.610Z,22.33
2023-03-07T23:23:39.969Z,22.05
2023-03-07T23:26:08.214Z,20.02
2023-03-07T23:28:35.817Z,21.77
2023-03-07T23:31:03.618Z,20.02
2023-03-07T23:33:30.824Z,18.98
2023-03-07T23:36:00.483Z,19.38
2023-03-07T23:38:27.915Z,22.15
2023-03-07T23:40:55.329Z,19.38
2023-03-07T23:43:22.599Z,18.02
2023-03-07T23:45:51.359Z,20.75
2023-03-07T23:48:19.669Z,18.67
2023-03-07T23:50:49.028Z,21.02
2023-03-07T23:53:16.345Z,18.23
2023-03-07T23:55:43.858Z,22.60
2023-03-07T23:58:11.220Z,19.77
